Mount Ephraim, NJ (08059)

2:18 AM EST on February 01, 2015 (GMT -0500)
APRSWXNET Audubon NJ US | Change Station
CLOSE
Current Station
Personal Weather Station
Location: Audubon, NJ
Elevation: 75 ft
Nearby Weather Stations

Elev 75 ft 39.89 °N, 75.07 °W | Updated 41 minutes ago

Clear
Clear
20 °F
Feels Like 20 °F
N
0
Wind Variable Wind from NNW
Gusts 0.0 mph

Today
High -- | Low -- °F
--% Chance of Precip.
Yesterday
High -- | Low -- °F
Precip. -- in
7:08 AM 5:19 PM
Waxing Gibbous, 93% visible
Pressure 30.26 in
Visibility 10.0 miles
Clouds Few 25000 ft
Windchill 20 °F
Dew Point 13 °F
Humidity 73%
Rainfall 0.00 in
Snow Depth Not available.
UV 0 out of 12
Pollen .10 out of 12
Air Quality Not available.
Flu Activity Not available.
METAR KPHL 010654Z 23006KT 10SM FEW250 M05/M12 A3026 RMK AO2 SLP247 T10501117

More Conditions Fewer Conditions

Pressure 30.26 in
Visibility 10.0 miles
Clouds Few 25000 ft
Windchill 20 °F
Dew Point 13 °F
Humidity 73%
Rainfall 0.00 in
Snow Depth Not available.
UV 0 out of 12
Pollen .10 out of 12
Air Quality Not available.
Flu Activity Not available.
METAR KPHL 010654Z 23006KT 10SM FEW250 M05/M12 A3026 RMK AO2 SLP247 T10501117

More Conditions Fewer Conditions

10-Day Weather Forecast

Almanac

Astronomy

Feb. 01, 2015 Rise Set
Actual Time
Civil Twilight
Nautical Twilight
Astronomical Twilight
Moon
Length of Visible Light
Length of Day
Tomorrow will be .
, % of the Moon is Illuminated

Today's Extremes

State Highs State Lows

Community

WunderPhotos

Upload Photos

1,792,325 photos uploaded!

WunderBlogs® & News

Nearby

Air Quality

  Air Quality AQ Index Pollutant
Not available.

Snow Depth

Station Depth Elevation

Earthquake Activity

City Distance Mag. Time & Date
Minimum magnitude displayed is 2.5.

Coastal Water Temperatures

Place Temperature

Nearby Weather Stations